Time;durP1;ratioP1;P1;durP2;ratioP2;P2;SDS_P1;SDS_P2;PMS_P1;PMS_P2;Temp;Humidity;BMP_temperature;BMP_pressure;BME280_temperature;BME280_humidity;BME280_pressure;Samples;Min_cycle;Max_cycle;Signal;HPM_P1;HPM_P2
2023/07/22 00:01:28;;;;;;;16.83;6.53;;;;;;;;;;4993454;28;20049;-93
2023/07/22 00:03:54;;;;;;;15.45;6.82;;;;;;;;;;5002277;28;20045;-93
2023/07/22 00:06:20;;;;;;;14.25;6.68;;;;;;;;;;5017981;28;20050;-93
2023/07/22 00:08:46;;;;;;;16.13;6.95;;;;;;;;;;4984913;28;20050;-93
2023/07/22 00:11:12;;;;;;;16.00;6.25;;;;;;;;;;5000495;28;20046;-93
2023/07/22 00:13:38;;;;;;;18.15;6.72;;;;;;;;;;5001091;28;20578;-91
2023/07/22 00:16:04;;;;;;;19.38;6.80;;;;;;;;;;4976284;28;20043;-95
2023/07/22 00:18:32;;;;;;;16.17;7.07;;;;;;;;;;4969238;28;20641;-94
2023/07/22 00:20:58;;;;;;;16.25;7.18;;;;;;;;;;4981643;28;20060;-94
2023/07/22 00:23:24;;;;;;;17.02;7.05;;;;;;;;;;4982374;28;20089;-95
2023/07/22 00:25:50;;;;;;;18.80;7.50;;;;;;;;;;4997912;28;20550;-94
2023/07/22 00:28:16;;;;;;;;;;;;;;;;;;4995872;28;20038;-94
2023/07/22 00:30:43;;;;;;;19.17;7.03;;;;;;;;;;5010073;28;19922;-89
2023/07/22 00:33:09;;;;;;;17.92;6.97;;;;;;;;;;4974235;28;20050;-90
2023/07/22 00:35:35;;;;;;;;;;;;;;;;;;4974642;28;20042;-91
2023/07/22 00:38:01;;;;;;;18.63;7.00;;;;;;;;;;4990822;28;20301;-92
2023/07/22 00:40:30;;;;;;;17.02;6.88;;;;;;;;;;4959494;28;20058;-91
2023/07/22 00:42:56;;;;;;;19.20;6.88;;;;;;;;;;4960689;28;20085;-92
2023/07/22 00:45:22;;;;;;;17.75;7.13;;;;;;;;;;4958144;28;20110;-92
2023/07/22 00:47:48;;;;;;;17.95;7.78;;;;;;;;;;4973636;28;20050;-92
2023/07/22 00:50:14;;;;;;;20.65;7.13;;;;;;;;;;4974184;28;20044;-86
2023/07/22 00:52:40;;;;;;;;;;;;;;;;;;4974966;28;20046;-92
2023/07/22 00:55:07;;;;;;;18.02;7.07;;;;;;;;;;5006991;28;19928;-92
2023/07/22 00:57:34;;;;;;;17.15;7.32;;;;;;;;;;4957319;28;20050;-92
2023/07/22 01:00:00;;;;;;;16.27;6.82;;;;;;;;;;5006145;28;20103;-93
2023/07/22 01:02:26;;;;;;;20.45;7.68;;;;;;;;;;4986699;28;20054;-93
2023/07/22 01:04:52;;;;;;;;;;;;;;;;;;4975194;28;20056;-92
2023/07/22 01:07:19;;;;;;;18.67;7.60;;;;;;;;;;4994599;28;19926;-91
2023/07/22 01:09:45;;;;;;;17.15;7.45;;;;;;;;;;4973985;28;20050;-90
2023/07/22 01:12:13;;;;;;;18.80;7.35;;;;;;;;;;4973570;28;20050;-91
2023/07/22 01:14:41;;;;;;;15.48;7.15;;;;;;;;;;4989689;28;20479;-91
2023/07/22 01:17:08;;;;;;;19.95;6.57;;;;;;;;;;4990466;28;20148;-91
2023/07/22 01:19:34;;;;;;;19.17;6.85;;;;;;;;;;4963911;28;20046;-93
2023/07/22 01:22:01;;;;;;;18.58;7.88;;;;;;;;;;4974136;28;20046;-90
2023/07/22 01:24:31;;;;;;;19.83;7.07;;;;;;;;;;4973313;28;20043;-90
2023/07/22 01:26:57;;;;;;;21.35;7.57;;;;;;;;;;4973699;28;20483;-89
2023/07/22 01:29:23;;;;;;;;;;;;;;;;;;4960772;28;20982;-88
2023/07/22 01:31:51;;;;;;;14.48;7.00;;;;;;;;;;4996065;28;19969;-91
2023/07/22 01:34:17;;;;;;;18.30;7.28;;;;;;;;;;4982941;28;20487;-90
2023/07/22 01:36:43;;;;;;;21.55;7.72;;;;;;;;;;4971200;28;20054;-92
2023/07/22 01:39:11;;;;;;;16.25;8.32;;;;;;;;;;4973617;28;20064;-92
2023/07/22 01:41:37;;;;;;;19.38;8.80;;;;;;;;;;4989642;28;20098;-92
2023/07/22 01:44:03;;;;;;;22.60;9.02;;;;;;;;;;4972246;28;20058;-92
2023/07/22 01:46:29;;;;;;;;;;;;;;;;;;4957506;28;20055;-90
2023/07/22 01:48:58;;;;;;;24.40;8.63;;;;;;;;;;4988738;28;19922;-89
2023/07/22 01:51:25;;;;;;;16.98;7.82;;;;;;;;;;5004792;28;20040;-90
2023/07/22 01:53:51;;;;;;;18.27;7.82;;;;;;;;;;4977533;28;20050;-91
2023/07/22 01:56:17;;;;;;;;;;;;;;;;;;4958080;28;20046;-92
2023/07/22 01:58:43;;;;;;;16.25;7.80;;;;;;;;;;4988412;28;19983;-92
2023/07/22 02:01:09;;;;;;;19.70;7.85;;;;;;;;;;4990736;28;20073;-93
2023/07/22 02:03:35;;;;;;;20.42;7.55;;;;;;;;;;4971765;28;20438;-92
2023/07/22 02:06:02;;;;;;;21.17;8.32;;;;;;;;;;4956377;28;20434;-93
2023/07/22 02:08:29;;;;;;;19.52;8.00;;;;;;;;;;4972837;28;20133;-93
2023/07/22 02:10:55;;;;;;;20.30;8.82;;;;;;;;;;4973309;28;20568;-93
2023/07/22 02:13:21;;;;;;;19.83;8.07;;;;;;;;;;4972813;28;20051;-91
2023/07/22 02:15:47;;;;;;;;;;;;;;;;;;4970202;28;20046;-94
2023/07/22 02:18:13;;;;;;;23.92;8.38;;;;;;;;;;5005744;28;20021;-92
2023/07/22 02:20:42;;;;;;;20.35;8.73;;;;;;;;;;5076796;28;20049;-91
2023/07/22 02:23:09;;;;;;;23.17;9.48;;;;;;;;;;4976117;28;20544;-92
2023/07/22 02:25:36;;;;;;;21.05;9.45;;;;;;;;;;5008415;28;20061;-93
2023/07/22 02:28:02;;;;;;;;;;;;;;;;;;4978919;28;20061;-92
2023/07/22 02:30:28;;;;;;;22.23;8.77;;;;;;;;;;5015471;28;19990;-93
2023/07/22 02:32:54;;;;;;;22.48;8.65;;;;;;;;;;4993594;28;20098;-92
2023/07/22 02:35:20;;;;;;;19.52;8.82;;;;;;;;;;4992689;28;20049;-93
2023/07/22 02:37:46;;;;;;;17.70;8.60;;;;;;;;;;4966571;28;20057;-92
2023/07/22 02:40:12;;;;;;;18.98;8.40;;;;;;;;;;4956739;28;20144;-93
2023/07/22 02:42:38;;;;;;;21.92;8.10;;;;;;;;;;4971624;28;20564;-92
2023/07/22 02:45:04;;;;;;;;;;;;;;;;;;4977812;28;20058;-93
2023/07/22 02:47:31;;;;;;;21.08;9.65;;;;;;;;;;4972254;28;19933;-92
2023/07/22 02:49:57;;;;;;;26.15;9.52;;;;;;;;;;4971885;28;20076;-94
2023/07/22 02:52:23;;;;;;;23.58;9.85;;;;;;;;;;4956612;28;20051;-90
2023/07/22 02:55:28;;;;;;;22.42;9.68;;;;;;;;;;4972428;28;20073;-91
2023/07/22 02:57:54;;;;;;;26.40;11.15;;;;;;;;;;5012521;28;20060;-93
2023/07/22 03:00:26;;;;;;;24.55;10.48;;;;;;;;;;5012230;28;20053;-93
2023/07/22 03:02:53;;;;;;;26.88;11.45;;;;;;;;;;4990392;28;20058;-92
2023/07/22 03:05:19;;;;;;;24.35;10.05;;;;;;;;;;4983772;28;20050;-90
2023/07/22 03:07:46;;;;;;;23.55;10.27;;;;;;;;;;4972092;28;20057;-93
2023/07/22 03:10:12;;;;;;;23.02;10.23;;;;;;;;;;4995432;28;20126;-92
2023/07/22 03:12:38;;;;;;;25.60;10.20;;;;;;;;;;4994581;28;20057;-92
2023/07/22 03:15:05;;;;;;;24.67;9.98;;;;;;;;;;5011503;28;20102;-92
2023/07/22 03:17:31;;;;;;;24.98;9.80;;;;;;;;;;4994668;28;20057;-91
2023/07/22 03:19:57;;;;;;;26.00;9.57;;;;;;;;;;4978452;28;20085;-92
2023/07/22 03:22:23;;;;;;;19.35;9.75;;;;;;;;;;4977025;28;20122;-90
2023/07/22 03:24:49;;;;;;;21.83;9.27;;;;;;;;;;4978452;28;20050;-92
2023/07/22 03:27:17;;;;;;;22.30;10.02;;;;;;;;;;5011202;28;20057;-92
2023/07/22 03:29:43;;;;;;;26.20;10.40;;;;;;;;;;4978295;28;20054;-93
2023/07/22 03:32:09;;;;;;;22.95;9.18;;;;;;;;;;4975819;28;20050;-90
2023/07/22 03:34:35;;;;;;;20.30;9.55;;;;;;;;;;4974165;28;20133;-92
2023/07/22 03:37:01;;;;;;;;;;;;;;;;;;4975889;28;20136;-93
2023/07/22 03:39:27;;;;;;;20.10;8.52;;;;;;;;;;4991644;28;20016;-93
2023/07/22 03:41:53;;;;;;;;;;;;;;;;;;4961907;28;20072;-91
2023/07/22 03:44:19;;;;;;;23.17;9.55;;;;;;;;;;5010821;28;19925;-92
2023/07/22 03:46:45;;;;;;;24.25;9.60;;;;;;;;;;4983157;28;20058;-92
2023/07/22 03:49:11;;;;;;;21.20;9.45;;;;;;;;;;4974633;28;20046;-92
2023/07/22 03:51:37;;;;;;;22.15;9.52;;;;;;;;;;4983988;28;20085;-90
2023/07/22 03:54:03;;;;;;;23.08;10.60;;;;;;;;;;4994928;28;20053;-93
2023/07/22 03:56:29;;;;;;;20.85;9.68;;;;;;;;;;4978560;28;20053;-91
2023/07/22 03:58:55;;;;;;;24.05;9.50;;;;;;;;;;4993526;28;20050;-92
2023/07/22 04:01:21;;;;;;;;;;;;;;;;;;4992958;28;20046;-90
2023/07/22 04:03:47;;;;;;;19.67;8.55;;;;;;;;;;4988343;28;19937;-92
2023/07/22 04:06:13;;;;;;;21.65;9.15;;;;;;;;;;4965526;28;20090;-92
2023/07/22 04:08:40;;;;;;;20.10;8.52;;;;;;;;;;4974588;28;20047;-91
2023/07/22 04:11:06;;;;;;;21.00;9.40;;;;;;;;;;4975026;28;20137;-91
2023/07/22 04:13:32;;;;;;;24.33;9.20;;;;;;;;;;4974508;28;20039;-91
2023/07/22 04:15:58;;;;;;;21.58;9.48;;;;;;;;;;4964598;28;20050;-91
2023/07/22 04:18:25;;;;;;;21.17;9.38;;;;;;;;;;5009790;28;20046;-92
2023/07/22 04:20:56;;;;;;;24.10;9.32;;;;;;;;;;4994085;28;20053;-92
2023/07/22 04:23:22;;;;;;;17.13;8.10;;;;;;;;;;4994429;28;20046;-91
2023/07/22 04:25:48;;;;;;;18.65;8.30;;;;;;;;;;5010002;28;20075;-92
2023/07/22 04:28:15;;;;;;;22.40;9.57;;;;;;;;;;4975410;28;20128;-94
2023/07/22 04:30:41;;;;;;;20.67;9.30;;;;;;;;;;4978352;28;20046;-93
2023/07/22 04:33:10;;;;;;;;;;;;;;;;;;4975307;28;20057;-93
2023/07/22 04:35:41;;;;;;;20.58;9.02;;;;;;;;;;4994209;28;19921;-87
2023/07/22 04:38:07;;;;;;;21.25;9.43;;;;;;;;;;4978018;28;20057;-92
2023/07/22 04:40:33;;;;;;;;;;;;;;;;;;4994168;28;20077;-92
2023/07/22 04:42:59;;;;;;;18.15;8.48;;;;;;;;;;5025102;28;19972;-91
2023/07/22 04:45:25;;;;;;;;;;;;;;;;;;4994189;28;20054;-92
2023/07/22 04:47:51;;;;;;;21.95;9.07;;;;;;;;;;5025483;28;19951;-92
2023/07/22 04:50:18;;;;;;;19.17;9.30;;;;;;;;;;4993970;28;20086;-91
2023/07/22 04:52:46;;;;;;;21.15;9.20;;;;;;;;;;4979231;28;20064;-94
2023/07/22 04:55:12;;;;;;;23.10;8.80;;;;;;;;;;4992344;28;20038;-91
2023/07/22 04:57:38;;;;;;;;;;;;;;;;;;4977267;28;20054;-88
2023/07/22 05:00:04;;;;;;;20.05;9.52;;;;;;;;;;5016993;28;19925;-87
2023/07/22 05:02:31;;;;;;;22.77;9.38;;;;;;;;;;4974034;28;20046;-94
2023/07/22 05:04:57;;;;;;;20.70;9.60;;;;;;;;;;4956515;28;20050;-93
2023/07/22 05:07:23;;;;;;;;;;;;;;;;;;4990844;28;20103;-94
2023/07/22 05:09:51;;;;;;;21.70;9.87;;;;;;;;;;4990054;28;19976;-92
2023/07/22 05:12:17;;;;;;;20.02;9.32;;;;;;;;;;5002786;28;20093;-92
2023/07/22 05:14:44;;;;;;;;;;;;;;;;;;4993009;28;20133;-92
2023/07/22 05:17:10;;;;;;;20.17;8.68;;;;;;;;;;5009868;28;20022;-92
2023/07/22 05:19:36;;;;;;;21.00;9.70;;;;;;;;;;4992785;28;20046;-93
2023/07/22 05:22:02;;;;;;;25.35;10.73;;;;;;;;;;4996588;28;20125;-91
2023/07/22 05:24:28;;;;;;;;;;;;;;;;;;4978985;28;20054;-94
2023/07/22 05:26:54;;;;;;;21.83;10.70;;;;;;;;;;5011943;28;19932;-92
2023/07/22 05:29:20;;;;;;;;;;;;;;;;;;4992102;28;20046;-93
2023/07/22 05:31:46;;;;;;;21.48;10.40;;;;;;;;;;5008334;28;20040;-90
2023/07/22 05:34:12;;;;;;;;;;;;;;;;;;4977350;28;20060;-93
2023/07/22 05:36:38;;;;;;;21.17;10.25;;;;;;;;;;5016614;28;19936;-92
2023/07/22 05:39:04;;;;;;;;;;;;;;;;;;4981048;28;20050;-93
2023/07/22 05:41:30;;;;;;;22.20;10.65;;;;;;;;;;4989901;28;19987;-95
2023/07/22 05:43:56;;;;;;;;;;;;;;;;;;4985307;28;20066;-94
2023/07/22 05:46:23;;;;;;;23.15;10.05;;;;;;;;;;4978184;28;19995;-93
2023/07/22 05:48:49;;;;;;;23.67;11.02;;;;;;;;;;4972363;28;20087;-92
2023/07/22 05:51:15;;;;;;;25.25;11.05;;;;;;;;;;4986807;28;20078;-93
2023/07/22 05:53:41;;;;;;;;;;;;;;;;;;4997085;28;20463;-93
2023/07/22 05:56:07;;;;;;;24.58;10.82;;;;;;;;;;4961537;28;19929;-93
2023/07/22 05:58:33;;;;;;;;;;;;;;;;;;4969943;28;20068;-93
2023/07/22 06:00:59;;;;;;;26.13;12.13;;;;;;;;;;4985942;28;19922;-92
2023/07/22 06:03:25;;;;;;;;;;;;;;;;;;4969455;28;20089;-90
2023/07/22 06:05:51;;;;;;;24.95;12.05;;;;;;;;;;4969508;28;19965;-94
2023/07/22 06:08:17;;;;;;;29.42;12.10;;;;;;;;;;4986365;28;20133;-90
2023/07/22 06:10:43;;;;;;;25.42;12.50;;;;;;;;;;4972961;28;20046;-92
2023/07/22 06:13:09;;;;;;;26.10;12.38;;;;;;;;;;4972390;28;20046;-90
2023/07/22 06:15:35;;;;;;;28.40;12.95;;;;;;;;;;4971939;28;20119;-91
2023/07/22 06:18:01;;;;;;;;;;;;;;;;;;4985533;28;20043;-92
2023/07/22 06:20:27;;;;;;;30.25;12.73;;;;;;;;;;4970023;28;19944;-92
2023/07/22 06:22:54;;;;;;;;;;;;;;;;;;4969569;28;20042;-92
2023/07/22 06:25:20;;;;;;;29.52;12.77;;;;;;;;;;4969674;28;19944;-93
2023/07/22 06:27:46;;;;;;;26.10;13.25;;;;;;;;;;5000281;28;20058;-86
2023/07/22 06:30:12;;;;;;;;;;;;;;;;;;4972026;28;20050;-90
2023/07/22 06:32:39;;;;;;;26.80;13.30;;;;;;;;;;4995500;28;19936;-89
2023/07/22 06:35:05;;;;;;;29.08;14.25;;;;;;;;;;4985175;28;20108;-93
2023/07/22 06:37:32;;;;;;;31.20;13.68;;;;;;;;;;4986263;28;20046;-90
2023/07/22 06:39:58;;;;;;;31.05;13.90;;;;;;;;;;4972013;28;20228;-92
2023/07/22 06:42:24;;;;;;;31.70;14.68;;;;;;;;;;4988790;28;20049;-91
2023/07/22 06:44:50;;;;;;;;;;;;;;;;;;4991446;28;20122;-86
2023/07/22 06:47:16;;;;;;;31.95;14.25;;;;;;;;;;5008160;28;19965;-89
2023/07/22 06:49:42;;;;;;;34.22;14.82;;;;;;;;;;4974846;28;20053;-73
2023/07/22 06:52:08;;;;;;;32.40;15.60;;;;;;;;;;4989499;28;20912;-73
2023/07/22 06:54:35;;;;;;;31.10;14.13;;;;;;;;;;5037122;28;20048;-71
2023/07/22 06:57:01;;;;;;;28.88;14.00;;;;;;;;;;5110267;28;20050;-71
2023/07/22 06:59:28;;;;;;;34.55;15.05;;;;;;;;;;5055778;28;20054;-68
2023/07/22 07:01:54;;;;;;;29.98;14.73;;;;;;;;;;4995620;28;20054;-72
2023/07/22 07:04:20;;;;;;;30.90;14.93;;;;;;;;;;5007267;28;20095;-81
2023/07/22 07:06:46;;;;;;;30.38;14.77;;;;;;;;;;4980214;28;20146;-80
2023/07/22 07:09:12;;;;;;;;;;;;;;;;;;4990248;28;20203;-81
2023/07/22 07:11:38;;;;;;;34.88;15.77;;;;;;;;;;5021016;28;20012;-82
2023/07/22 07:14:04;;;;;;;;;;;;;;;;;;4989783;28;20057;-81
2023/07/22 07:16:31;;;;;;;35.25;16.40;;;;;;;;;;5019330;28;19921;-81
2023/07/22 07:18:58;;;;;;;32.33;15.90;;;;;;;;;;4973389;28;20053;-81
2023/07/22 07:21:24;;;;;;;35.83;16.23;;;;;;;;;;4972171;28;20050;-81
2023/07/22 07:23:51;;;;;;;;;;;;;;;;;;4965194;28;20457;-81
2023/07/22 07:26:17;;;;;;;37.20;16.13;;;;;;;;;;4970563;28;20025;-81
2023/07/22 07:28:43;;;;;;;;;;;;;;;;;;5003172;28;20395;-81
2023/07/22 07:31:09;;;;;;;42.60;22.95;;;;;;;;;;4986727;28;20016;-81
2023/07/22 07:33:35;;;;;;;34.83;18.33;;;;;;;;;;4970021;28;20541;-81
2023/07/22 07:36:03;;;;;;;36.15;16.40;;;;;;;;;;4981407;28;20042;-82
2023/07/22 07:38:29;;;;;;;38.35;16.77;;;;;;;;;;4970878;28;20538;-81
2023/07/22 07:40:55;;;;;;;;;;;;;;;;;;4978590;28;20045;-81
2023/07/22 07:43:21;;;;;;;31.90;15.45;;;;;;;;;;4990421;28;20492;-82
2023/07/22 07:45:47;;;;;;;;;;;;;;;;;;4982476;28;20062;-81
2023/07/22 07:48:13;;;;;;;31.50;15.40;;;;;;;;;;4987244;28;19930;-81
2023/07/22 07:50:39;;;;;;;;;;;;;;;;;;5006844;28;20058;-77
2023/07/22 07:53:05;;;;;;;26.02;13.65;;;;;;;;;;5025117;28;19986;-81
2023/07/22 07:55:31;;;;;;;;;;;;;;;;;;4988675;28;20404;-78
2023/07/22 07:57:57;;;;;;;27.38;13.18;;;;;;;;;;4989394;28;19925;-76
2023/07/22 08:00:23;;;;;;;;;;;;;;;;;;4991283;28;20076;-80
2023/07/22 08:02:49;;;;;;;29.92;14.10;;;;;;;;;;4993272;28;19933;-91
2023/07/22 08:05:16;;;;;;;;;;;;;;;;;;4996532;28;20050;-79
2023/07/22 08:07:42;;;;;;;26.88;13.43;;;;;;;;;;4983665;28;19922;-83
2023/07/22 08:10:09;;;;;;;;;;;;;;;;;;5011048;28;20183;-84
2023/07/22 08:12:37;;;;;;;;;;;;;;;;;;4992161;28;19921;-84
2023/07/22 08:15:03;;;;;;;25.88;13.02;;;;;;;;;;5005182;28;20367;-83
2023/07/22 08:17:29;;;;;;;28.20;12.93;;;;;;;;;;5006024;28;20054;-85
2023/07/22 08:19:55;;;;;;;;;;;;;;;;;;4960389;28;20054;-84
2023/07/22 08:22:21;;;;;;;25.60;12.68;;;;;;;;;;4982338;28;19932;-84
2023/07/22 08:24:47;;;;;;;;;;;;;;;;;;4989821;28;20042;-84
2023/07/22 08:27:13;;;;;;;19.90;11.25;;;;;;;;;;4973641;28;19929;-84
2023/07/22 08:29:39;;;;;;;23.00;11.98;;;;;;;;;;4979351;28;20057;-84
2023/07/22 08:32:06;;;;;;;;;;;;;;;;;;4975594;28;20049;-84
2023/07/22 08:34:32;;;;;;;21.80;10.63;;;;;;;;;;5039595;28;20016;-84
2023/07/22 08:36:58;;;;;;;;;;;;;;;;;;5043557;28;20303;-81
2023/07/22 08:39:24;;;;;;;23.95;13.20;;;;;;;;;;5018329;28;20319;-80
2023/07/22 08:41:50;;;;;;;;;;;;;;;;;;5029689;28;20041;-80
2023/07/22 08:44:19;;;;;;;21.77;9.90;;;;;;;;;;5041227;28;19921;-80
2023/07/22 08:46:45;;;;;;;20.95;10.15;;;;;;;;;;5058908;28;20654;-83
2023/07/22 08:49:11;;;;;;;20.92;10.63;;;;;;;;;;4995258;28;20398;-84
2023/07/22 08:51:37;;;;;;;;;;;;;;;;;;4977061;28;20062;-80
2023/07/22 08:54:03;;;;;;;20.02;9.05;;;;;;;;;;5004506;28;20340;-83
2023/07/22 08:56:29;;;;;;;;;;;;;;;;;;4972846;28;20047;-82
2023/07/22 08:58:56;;;;;;;17.70;9.02;;;;;;;;;;4981809;28;19939;-83
2023/07/22 09:01:22;;;;;;;20.67;9.98;;;;;;;;;;4962210;28;20050;-78
2023/07/22 09:03:52;;;;;;;20.73;9.38;;;;;;;;;;4974488;28;20037;-82
2023/07/22 09:06:21;;;;;;;17.15;8.95;;;;;;;;;;4991372;28;20057;-82
2023/07/22 09:08:48;;;;;;;18.40;9.63;;;;;;;;;;4971839;28;20130;-81
2023/07/22 09:11:15;;;;;;;17.63;9.15;;;;;;;;;;4991371;28;20050;-81
2023/07/22 09:13:44;;;;;;;16.02;7.50;;;;;;;;;;4988099;28;20084;-82
2023/07/22 09:16:10;;;;;;;12.63;7.55;;;;;;;;;;4965055;28;20054;-81
2023/07/22 09:18:36;;;;;;;16.20;6.55;;;;;;;;;;4971688;28;20101;-81
2023/07/22 09:21:03;;;;;;;;;;;;;;;;;;4973046;28;20480;-82
2023/07/22 09:23:36;;;;;;;13.63;5.50;;;;;;;;;;5004222;28;19928;-81
2023/07/22 09:26:09;;;;;;;9.88;5.20;;;;;;;;;;4956731;28;20058;-81
2023/07/22 09:28:49;;;;;;;13.48;7.13;;;;;;;;;;4972108;28;20092;-81
2023/07/22 09:31:15;;;;;;;18.17;7.93;;;;;;;;;;4970292;28;20049;-81
2023/07/22 09:33:41;;;;;;;;;;;;;;;;;;4991646;28;20042;-80
2023/07/22 09:36:07;;;;;;;15.95;7.70;;;;;;;;;;5007934;28;20251;-81
2023/07/22 09:38:33;;;;;;;;;;;;;;;;;;4976194;28;20049;-80
2023/07/22 09:40:59;;;;;;;17.95;8.10;;;;;;;;;;5019217;28;19936;-80
2023/07/22 09:43:25;;;;;;;;;;;;;;;;;;4989278;28;20384;-77
2023/07/22 09:45:51;;;;;;;18.30;8.85;;;;;;;;;;4968111;28;19929;-81
2023/07/22 09:48:17;;;;;;;;;;;;;;;;;;4976430;28;20053;-79
2023/07/22 09:50:43;;;;;;;18.58;8.90;;;;;;;;;;4989322;28;19921;-80
2023/07/22 09:53:09;;;;;;;;;;;;;;;;;;4991476;28;20191;-81
2023/07/22 09:55:35;;;;;;;21.40;8.77;;;;;;;;;;4974418;28;20012;-83
2023/07/22 09:58:01;;;;;;;;;;;;;;;;;;4975955;28;20061;-82
2023/07/22 10:00:31;;;;;;;25.00;10.65;;;;;;;;;;4975748;28;19921;-80
2023/07/22 10:02:58;;;;;;;19.48;9.38;;;;;;;;;;4964943;28;20041;-82
2023/07/22 10:05:25;;;;;;;15.32;7.15;;;;;;;;;;4999637;28;20042;-82
2023/07/22 10:07:55;;;;;;;15.40;7.97;;;;;;;;;;5018270;28;20045;-82
2023/07/22 10:10:24;;;;;;;18.88;9.45;;;;;;;;;;5026364;28;20050;-79
2023/07/22 10:12:50;;;;;;;19.05;8.88;;;;;;;;;;4977570;28;20073;-77
2023/07/22 10:15:17;;;;;;;;;;;;;;;;;;5013352;28;20049;-79
2023/07/22 10:17:44;;;;;;;21.27;9.55;;;;;;;;;;5027502;28;19921;-83
2023/07/22 10:20:15;;;;;;;17.65;9.30;;;;;;;;;;4983771;28;20050;-81
2023/07/22 10:22:44;;;;;;;17.85;8.95;;;;;;;;;;4990708;28;20037;-84
2023/07/22 10:25:17;;;;;;;16.60;7.88;;;;;;;;;;4978650;28;20115;-84
2023/07/22 10:27:44;;;;;;;14.23;7.97;;;;;;;;;;4993679;28;20110;-84
2023/07/22 10:30:10;;;;;;;19.45;9.25;;;;;;;;;;4994071;28;20132;-84
2023/07/22 10:32:38;;;;;;;17.38;9.45;;;;;;;;;;4980643;28;20045;-84
2023/07/22 10:35:04;;;;;;;18.63;8.57;;;;;;;;;;5025838;28;20131;-84
2023/07/22 10:37:33;;;;;;;20.38;9.45;;;;;;;;;;5006657;28;20109;-84
2023/07/22 10:40:01;;;;;;;17.17;8.95;;;;;;;;;;4974872;28;20128;-84
2023/07/22 10:42:27;;;;;;;18.13;9.18;;;;;;;;;;4973530;28;20110;-84
2023/07/22 10:44:53;;;;;;;;;;;;;;;;;;4990308;28;20054;-83
2023/07/22 10:47:36;;;;;;;17.77;8.60;;;;;;;;;;4998471;28;19933;-83
2023/07/22 10:50:07;;;;;;;17.05;9.15;;;;;;;;;;4955697;28;20054;-83
2023/07/22 10:52:41;;;;;;;16.55;9.73;;;;;;;;;;4973810;28;20127;-83
2023/07/22 10:55:20;;;;;;;17.67;9.52;;;;;;;;;;4986627;28;20076;-83
2023/07/22 10:57:55;;;;;;;20.08;10.20;;;;;;;;;;4974545;28;20072;-81
2023/07/22 11:00:22;;;;;;;28.23;11.27;;;;;;;;;;4989696;28;20406;-82
2023/07/22 11:03:08;;;;;;;21.35;9.77;;;;;;;;;;4989694;28;20073;-81
2023/07/22 11:05:52;;;;;;;20.17;10.25;;;;;;;;;;4983508;28;20050;-81
2023/07/22 11:08:36;;;;;;;17.42;9.65;;;;;;;;;;4959105;28;20061;-82
2023/07/22 11:11:03;;;;;;;20.45;9.98;;;;;;;;;;4971206;28;20487;-81
2023/07/22 11:13:29;;;;;;;19.80;10.68;;;;;;;;;;4970222;28;20054;-82
2023/07/22 11:15:55;;;;;;;;;;;;;;;;;;4961646;28;20049;-81
2023/07/22 11:18:21;;;;;;;29.15;12.05;;;;;;;;;;4992044;28;20379;-82
2023/07/22 11:20:47;;;;;;;;;;;;;;;;;;4968725;28;20057;-82
2023/07/22 11:23:13;;;;;;;21.20;10.23;;;;;;;;;;5022930;28;19921;-83
2023/07/22 11:25:39;;;;;;;;;;;;;;;;;;4974277;28;20058;-83
2023/07/22 11:28:05;;;;;;;24.80;11.40;;;;;;;;;;5008409;28;19927;-83
2023/07/22 11:30:32;;;;;;;21.10;11.35;;;;;;;;;;4973982;28;20129;-82
2023/07/22 11:32:58;;;;;;;23.02;11.80;;;;;;;;;;4985534;28;20583;-82
2023/07/22 11:35:25;;;;;;;21.77;11.35;;;;;;;;;;5006397;28;20047;-82
2023/07/22 11:37:50;;;;;;;;;;;;;;;;;;5000171;28;20058;-81
2023/07/22 11:40:17;;;;;;;33.17;11.10;;;;;;;;;;4968429;28;20012;-81
2023/07/22 11:42:44;;;;;;;;;;;;;;;;;;4987940;28;20163;-81
2023/07/22 11:45:11;;;;;;;25.60;11.88;;;;;;;;;;4988643;28;19928;-83
2023/07/22 11:47:37;;;;;;;22.77;9.90;;;;;;;;;;5006216;28;20054;-83
2023/07/22 11:50:03;;;;;;;;;;;;;;;;;;4992897;28;20051;-82
2023/07/22 11:52:30;;;;;;;21.90;10.05;;;;;;;;;;4993331;28;19932;-82
2023/07/22 11:55:03;;;;;;;12.82;8.18;;;;;;;;;;4994219;28;20132;-80
2023/07/22 11:57:29;;;;;;;15.77;9.15;;;;;;;;;;4983936;28;20061;-79
2023/07/22 11:59:56;;;;;;;14.05;8.98;;;;;;;;;;4983993;28;20094;-80
2023/07/22 12:02:22;;;;;;;17.42;9.85;;;;;;;;;;4977538;28;20045;-86
2023/07/22 12:04:48;;;;;;;;;;;;;;;;;;4984613;28;20077;-82
2023/07/22 12:07:27;;;;;;;16.45;10.02;;;;;;;;;;4990148;28;20371;-81
2023/07/22 12:09:53;;;;;;;16.50;10.13;;;;;;;;;;4973789;28;20088;-81
2023/07/22 12:12:19;;;;;;;18.92;11.60;;;;;;;;;;4976652;28;20993;-81
2023/07/22 12:14:45;;;;;;;;;;;;;;;;;;4977673;28;20479;-83
2023/07/22 12:17:11;;;;;;;19.25;11.93;;;;;;;;;;4976176;28;19921;-80
2023/07/22 12:19:37;;;;;;;;;;;;;;;;;;4990155;28;20134;-84
2023/07/22 12:22:04;;;;;;;17.02;10.57;;;;;;;;;;5016626;28;20366;-82
2023/07/22 12:24:30;;;;;;;18.17;10.20;;;;;;;;;;4994653;28;20507;-82
2023/07/22 12:26:56;;;;;;;15.05;8.85;;;;;;;;;;5016755;28;20049;-81
2023/07/22 12:29:22;;;;;;;14.02;8.60;;;;;;;;;;4997870;28;20052;-84
2023/07/22 12:31:48;;;;;;;;;;;;;;;;;;4992898;28;20583;-81
2023/07/22 12:34:14;;;;;;;17.63;9.10;;;;;;;;;;4992372;28;19925;-81
2023/07/22 12:36:41;;;;;;;15.38;8.75;;;;;;;;;;4992562;28;20038;-81
2023/07/22 12:39:07;;;;;;;14.43;8.35;;;;;;;;;;4983816;28;20555;-80
2023/07/22 12:41:33;;;;;;;13.85;8.82;;;;;;;;;;5009543;28;20816;-80
2023/07/22 12:43:59;;;;;;;16.90;9.00;;;;;;;;;;4976933;28;20114;-80
2023/07/22 12:46:25;;;;;;;;;;;;;;;;;;4994003;28;20042;-85
2023/07/22 12:48:51;;;;;;;13.40;9.52;;;;;;;;;;5025755;28;20439;-80
2023/07/22 12:51:17;;;;;;;;;;;;;;;;;;4993834;28;20049;-82
2023/07/22 12:53:43;;;;;;;14.68;9.18;;;;;;;;;;5009313;28;19925;-80
2023/07/22 12:56:09;;;;;;;;;;;;;;;;;;4993299;28;20580;-83
2023/07/22 12:58:35;;;;;;;13.55;9.57;;;;;;;;;;4988042;28;19925;-79
2023/07/22 13:01:01;;;;;;;;;;;;;;;;;;5006039;28;20407;-77
2023/07/22 13:03:27;;;;;;;13.57;8.65;;;;;;;;;;5003711;28;19930;-82
2023/07/22 13:05:53;;;;;;;;;;;;;;;;;;4975648;28;20106;-78
2023/07/22 13:08:19;;;;;;;16.25;8.88;;;;;;;;;;5008998;28;19925;-77
2023/07/22 13:10:47;;;;;;;;;;;;;;;;;;4976365;28;20050;-77
2023/07/22 13:13:13;;;;;;;18.00;8.75;;;;;;;;;;4991754;28;19921;-76
2023/07/22 13:15:39;;;;;;;14.80;7.40;;;;;;;;;;4975546;28;20046;-75
2023/07/22 13:18:05;;;;;;;;;;;;;;;;;;5004549;28;20046;-75
2023/07/22 13:20:31;;;;;;;11.32;7.30;;;;;;;;;;5023632;28;19921;-78
2023/07/22 13:22:57;;;;;;;;;;;;;;;;;;4972458;28;20046;-75
2023/07/22 13:25:23;;;;;;;17.60;8.43;;;;;;;;;;5005243;28;19921;-78
2023/07/22 13:27:49;;;;;;;;;;;;;;;;;;4985352;28;20056;-77
2023/07/22 13:30:15;;;;;;;17.73;9.50;;;;;;;;;;4991983;28;19922;-77
2023/07/22 13:32:42;;;;;;;20.10;10.43;;;;;;;;;;5001482;28;20050;-81
2023/07/22 13:35:09;;;;;;;;;;;;;;;;;;5018619;28;20049;-81
2023/07/22 13:37:35;;;;;;;18.23;10.63;;;;;;;;;;5017693;28;19928;-83
2023/07/22 13:40:03;;;;;;;21.25;10.88;;;;;;;;;;5004249;28;20049;-83
2023/07/22 13:42:30;;;;;;;24.42;13.10;;;;;;;;;;5045304;28;20042;-84
2023/07/22 13:44:56;;;;;;;27.52;13.48;;;;;;;;;;5027426;28;20054;-82
2023/07/22 13:47:22;;;;;;;;;;;;;;;;;;5024589;28;20095;-82
2023/07/22 13:49:48;;;;;;;21.25;11.43;;;;;;;;;;5059572;28;19944;-82
2023/07/22 13:52:14;;;;;;;;;;;;;;;;;;4973697;28;20548;-82
2023/07/22 13:54:40;;;;;;;24.10;13.05;;;;;;;;;;5010580;28;19921;-81
2023/07/22 13:57:07;;;;;;;24.08;13.70;;;;;;;;;;4999507;28;20042;-81
2023/07/22 13:59:33;;;;;;;25.23;14.15;;;;;;;;;;4987367;28;20050;-84
2023/07/22 14:01:59;;;;;;;;;;;;;;;;;;4983226;28;20442;-79
2023/07/22 14:04:25;;;;;;;26.92;15.07;;;;;;;;;;5001930;28;19928;-81
2023/07/22 14:06:51;;;;;;;;;;;;;;;;;;4982751;28;20129;-79
2023/07/22 14:09:17;;;;;;;23.50;14.15;;;;;;;;;;4975703;28;20016;-80
2023/07/22 14:11:43;;;;;;;;;;;;;;;;;;4971304;28;20475;-79
2023/07/22 14:14:09;;;;;;;22.25;15.02;;;;;;;;;;4975820;28;19974;-78
2023/07/22 14:16:35;;;;;;;;;;;;;;;;;;5029729;28;20099;-83
2023/07/22 14:19:01;;;;;;;24.88;14.63;;;;;;;;;;4976840;28;19925;-80
2023/07/22 14:21:27;;;;;;;;;;;;;;;;;;4979753;28;20456;-79
2023/07/22 14:23:54;;;;;;;27.52;15.40;;;;;;;;;;4954121;28;20016;-79
2023/07/22 14:26:20;;;;;;;26.23;16.98;;;;;;;;;;4971248;28;20069;-79
2023/07/22 14:28:46;;;;;;;;;;;;;;;;;;4987266;28;20034;-79
2023/07/22 14:31:12;;;;;;;31.55;18.33;;;;;;;;;;4990231;28;19929;-79
2023/07/22 14:33:38;;;;;;;27.60;19.02;;;;;;;;;;4973079;28;20113;-83
2023/07/22 14:36:05;;;;;;;28.50;19.45;;;;;;;;;;4990438;28;20034;-79
2023/07/22 14:38:31;;;;;;;;;;;;;;;;;;4982603;28;20538;-79
2023/07/22 14:40:57;;;;;;;32.25;20.52;;;;;;;;;;4987275;28;19921;-79
2023/07/22 14:43:23;;;;;;;38.00;23.65;;;;;;;;;;4988257;28;20083;-78
2023/07/22 14:45:49;;;;;;;;;;;;;;;;;;4998468;28;20099;-79
2023/07/22 14:48:15;;;;;;;52.78;31.27;;;;;;;;;;4972840;28;20447;-79
2023/07/22 14:50:41;;;;;;;35.00;23.33;;;;;;;;;;4972027;28;20046;-79
2023/07/22 14:53:08;;;;;;;37.17;22.17;;;;;;;;;;4990567;28;20391;-78